createdAt,value
2018-03-30T04:00:35.228Z,3.8
2018-03-30T04:01:00.706Z,3.83
2018-03-30T04:01:26.154Z,3.84
2018-03-30T04:01:51.655Z,3.77
2018-03-30T04:02:17.099Z,3.83
2018-03-30T04:02:42.544Z,3.81
2018-03-30T04:03:08.010Z,3.83
2018-03-30T04:03:33.450Z,3.88
2018-03-30T04:03:58.933Z,3.74
2018-03-30T04:04:24.389Z,3.87
2018-03-30T04:04:49.871Z,3.78
2018-03-30T04:05:15.321Z,3.83
2018-03-30T04:05:40.839Z,3.87
2018-03-30T04:06:06.324Z,3.84
2018-03-30T04:06:31.796Z,3.84
2018-03-30T04:06:57.336Z,3.87
2018-03-30T04:07:22.779Z,3.88
2018-03-30T04:07:48.221Z,3.78
2018-03-30T04:08:13.670Z,3.78
2018-03-30T04:08:39.161Z,3.81
2018-03-30T04:09:04.665Z,3.76
2018-03-30T04:09:30.084Z,3.78
2018-03-30T04:09:55.550Z,3.76
2018-03-30T04:10:21.082Z,3.74
2018-03-30T04:10:46.517Z,3.69
2018-03-30T04:11:11.992Z,3.74
2018-03-30T04:11:37.457Z,3.69
2018-03-30T04:12:02.938Z,3.76
2018-03-30T04:12:28.409Z,3.74
2018-03-30T04:12:53.868Z,3.73
2018-03-30T04:13:19.336Z,3.73
2018-03-30T04:13:44.828Z,3.73
2018-03-30T04:14:10.305Z,3.69
2018-03-30T04:14:35.819Z,3.77
2018-03-30T04:15:01.254Z,3.76
2018-03-30T04:15:26.792Z,3.77
2018-03-30T04:15:52.222Z,3.68
2018-03-30T04:16:17.720Z,3.7
2018-03-30T04:16:43.146Z,3.7
2018-03-30T04:17:08.680Z,3.76
2018-03-30T04:17:34.166Z,3.68
2018-03-30T04:17:59.582Z,3.73
2018-03-30T04:18:25.053Z,3.73
2018-03-30T04:18:50.517Z,3.74
2018-03-30T04:19:16.000Z,3.76
2018-03-30T04:19:41.465Z,3.7
2018-03-30T04:20:06.925Z,3.73
2018-03-30T04:20:32.394Z,3.66
2018-03-30T04:20:57.888Z,3.73
2018-03-30T04:21:23.353Z,3.76
2018-03-30T04:21:48.888Z,3.74
2018-03-30T04:22:14.320Z,3.74
2018-03-30T04:22:39.832Z,3.73
2018-03-30T04:23:05.298Z,3.74
2018-03-30T04:23:30.736Z,3.74
2018-03-30T04:23:56.219Z,3.66
2018-03-30T04:24:21.697Z,3.74
2018-03-30T04:24:47.144Z,3.74
2018-03-30T04:25:12.628Z,3.77
2018-03-30T04:25:38.064Z,3.73
2018-03-30T04:26:03.542Z,3.69
2018-03-30T04:26:29.028Z,3.68
2018-03-30T04:26:54.495Z,3.74
2018-03-30T04:27:19.950Z,3.7
2018-03-30T04:27:45.406Z,3.76
2018-03-30T04:28:10.890Z,3.77
2018-03-30T04:28:36.325Z,3.7
2018-03-30T04:29:01.782Z,3.76
2018-03-30T04:29:27.242Z,3.69
2018-03-30T04:29:52.701Z,3.74
2018-03-30T04:30:18.130Z,3.69
2018-03-30T04:30:43.590Z,3.69
2018-03-30T04:31:09.050Z,3.77
2018-03-30T04:31:34.520Z,3.74
2018-03-30T04:31:59.998Z,3.7
2018-03-30T04:32:25.447Z,3.7
2018-03-30T04:32:50.924Z,3.68
2018-03-30T04:33:16.373Z,3.73
2018-03-30T04:33:41.914Z,3.81
2018-03-30T04:34:07.384Z,3.73
2018-03-30T04:34:32.902Z,3.74
2018-03-30T04:34:58.476Z,3.81
2018-03-30T04:35:23.889Z,3.8
2018-03-30T04:35:49.404Z,3.76
2018-03-30T04:36:14.891Z,3.84
2018-03-30T04:36:40.427Z,3.91
2018-03-30T04:37:05.847Z,3.8
2018-03-30T04:37:31.343Z,3.83
2018-03-30T04:37:56.852Z,3.84
2018-03-30T04:38:22.417Z,3.78
2018-03-30T04:38:47.819Z,3.86
2018-03-30T04:39:13.371Z,3.8
2018-03-30T04:39:38.860Z,3.81
2018-03-30T04:40:04.298Z,3.86
2018-03-30T04:40:29.853Z,3.83
2018-03-30T04:40:55.334Z,3.86
2018-03-30T04:41:20.807Z,3.74
2018-03-30T04:41:46.359Z,3.77
2018-03-30T04:42:11.847Z,3.76
2018-03-30T04:42:37.329Z,3.83
2018-03-30T04:43:02.800Z,3.76
2018-03-30T04:43:28.269Z,3.78
2018-03-30T04:43:53.777Z,3.81
2018-03-30T04:44:19.301Z,3.76
2018-03-30T04:44:44.742Z,3.81
2018-03-30T04:45:10.223Z,3.83
2018-03-30T04:45:35.674Z,3.81
2018-03-30T04:46:01.123Z,3.8
2018-03-30T04:46:26.648Z,3.84
2018-03-30T04:46:52.154Z,3.74
2018-03-30T04:47:17.630Z,3.78
2018-03-30T04:47:43.033Z,3.73
2018-03-30T04:48:08.528Z,3.78
2018-03-30T04:48:34.000Z,3.8
2018-03-30T04:48:59.525Z,3.78
2018-03-30T04:49:24.977Z,3.8
2018-03-30T04:49:50.433Z,3.77
2018-03-30T04:50:38.737Z,3.83
2018-03-30T04:51:04.232Z,3.76
2018-03-30T04:51:29.648Z,3.83
2018-03-30T04:51:55.134Z,3.77
2018-03-30T04:52:20.636Z,3.81
2018-03-30T04:52:46.053Z,3.81
2018-03-30T04:53:11.539Z,3.86
2018-03-30T04:53:36.998Z,3.83
2018-03-30T04:54:02.526Z,3.86
2018-03-30T04:54:27.973Z,3.8
2018-03-30T04:54:53.424Z,3.73
2018-03-30T04:55:18.922Z,3.76
2018-03-30T04:55:44.420Z,3.84
2018-03-30T04:56:09.905Z,3.83
2018-03-30T04:56:35.376Z,3.83
2018-03-30T04:57:00.795Z,3.73
2018-03-30T04:57:26.308Z,3.83
2018-03-30T04:57:51.839Z,3.83
2018-03-30T04:58:17.398Z,3.8
2018-03-30T04:58:42.875Z,3.8
2018-03-30T04:59:08.357Z,3.81
2018-03-30T04:59:33.819Z,3.8
2018-03-30T04:59:59.275Z,3.83
2018-03-30T05:00:24.786Z,3.83
2018-03-30T05:00:50.252Z,3.81
2018-03-30T05:01:15.720Z,3.83
2018-03-30T05:01:41.211Z,3.78
2018-03-30T05:02:06.735Z,3.78
2018-03-30T05:02:32.290Z,3.78
2018-03-30T05:02:57.776Z,3.77
2018-03-30T05:03:23.266Z,3.83
2018-03-30T05:03:48.769Z,3.83
2018-03-30T05:04:14.269Z,3.81
2018-03-30T05:04:39.751Z,3.8
2018-03-30T05:05:05.244Z,3.76
2018-03-30T05:05:30.735Z,3.78
2018-03-30T05:05:56.197Z,3.86
2018-03-30T05:06:21.679Z,3.81
2018-03-30T05:06:47.159Z,3.81
2018-03-30T05:07:12.639Z,3.83
2018-03-30T05:07:38.148Z,3.83
2018-03-30T05:08:03.573Z,3.84
2018-03-30T05:08:29.030Z,3.81
2018-03-30T05:08:54.523Z,3.86
2018-03-30T05:09:20.013Z,3.81
2018-03-30T05:09:45.479Z,3.81
2018-03-30T05:10:10.967Z,3.86
2018-03-30T05:10:36.488Z,3.77
2018-03-30T05:11:01.976Z,3.8
2018-03-30T05:11:27.463Z,3.81
2018-03-30T05:11:52.948Z,3.77
2018-03-30T05:12:18.487Z,3.83
2018-03-30T05:12:43.915Z,3.8
2018-03-30T05:13:09.410Z,3.86
2018-03-30T05:13:34.904Z,3.83
2018-03-30T05:14:00.408Z,3.81
2018-03-30T05:14:25.870Z,3.77
2018-03-30T05:14:51.344Z,3.8
2018-03-30T05:15:16.837Z,3.76
2018-03-30T05:15:42.328Z,3.83
2018-03-30T05:16:07.842Z,3.84
2018-03-30T05:16:33.428Z,3.77
2018-03-30T05:16:58.778Z,3.86
2018-03-30T05:17:24.291Z,3.84
2018-03-30T05:17:49.788Z,3.84
2018-03-30T05:18:15.238Z,3.77
2018-03-30T05:18:40.674Z,3.78
2018-03-30T05:19:06.136Z,3.86
2018-03-30T05:19:31.586Z,3.84
2018-03-30T05:19:57.044Z,3.86
2018-03-30T05:20:22.516Z,3.86
2018-03-30T05:21:31.217Z,3.86
2018-03-30T05:21:56.697Z,3.78
2018-03-30T05:22:22.209Z,3.81
2018-03-30T05:22:47.648Z,3.84
2018-03-30T05:23:13.136Z,3.87
2018-03-30T05:23:38.630Z,3.87
2018-03-30T05:24:04.102Z,3.84
2018-03-30T05:24:29.564Z,3.86
2018-03-30T05:24:55.046Z,3.95
2018-03-30T05:25:20.487Z,3.92
2018-03-30T05:25:45.967Z,3.87
2018-03-30T05:26:11.433Z,3.81
2018-03-30T05:26:36.961Z,3.94
2018-03-30T05:27:02.431Z,3.99
2018-03-30T05:27:27.911Z,3.86
2018-03-30T05:27:53.380Z,3.86
2018-03-30T05:28:18.838Z,3.98
2018-03-30T05:28:44.294Z,3.92
2018-03-30T05:29:09.792Z,3.86
2018-03-30T05:29:35.260Z,3.87
2018-03-30T05:30:00.699Z,3.96
2018-03-30T05:30:26.174Z,3.91
2018-03-30T05:30:51.622Z,3.88
2018-03-30T05:31:17.083Z,3.94
2018-03-30T05:31:42.606Z,3.83
2018-03-30T05:32:07.994Z,3.94
2018-03-30T05:32:33.461Z,3.91
2018-03-30T05:32:58.937Z,3.96
2018-03-30T05:33:24.389Z,3.96
2018-03-30T05:33:49.841Z,3.94
2018-03-30T05:34:15.294Z,3.99
2018-03-30T05:34:40.786Z,3.94
2018-03-30T05:35:06.273Z,3.95
2018-03-30T05:35:31.758Z,4.01
2018-03-30T05:35:57.237Z,4.06
2018-03-30T05:36:22.708Z,4.02
2018-03-30T05:36:48.142Z,4.06
2018-03-30T05:37:13.594Z,3.96
2018-03-30T05:37:39.094Z,3.99
2018-03-30T05:38:04.517Z,4.13
2018-03-30T05:38:30.012Z,4.05
2018-03-30T05:39:18.331Z,4.04
2018-03-30T05:39:43.816Z,4.05
2018-03-30T05:40:09.308Z,4.14
2018-03-30T05:40:34.744Z,4.1
2018-03-30T05:41:00.238Z,4.14
2018-03-30T05:41:25.666Z,4.17
2018-03-30T05:41:51.129Z,4.06
2018-03-30T05:42:16.605Z,4.13
2018-03-30T05:42:42.010Z,4.19
2018-03-30T05:43:07.454Z,4.17
2018-03-30T05:43:32.949Z,4.12
2018-03-30T05:43:58.411Z,4.16
2018-03-30T05:44:23.907Z,4.16
2018-03-30T05:44:49.326Z,4.24
2018-03-30T05:45:14.781Z,4.17
2018-03-30T05:45:40.218Z,4.23
2018-03-30T05:46:05.691Z,4.05
2018-03-30T05:46:31.138Z,4.13
2018-03-30T05:46:56.605Z,4.17
2018-03-30T05:47:22.068Z,4.2
2018-03-30T05:47:47.528Z,4.26
2018-03-30T05:48:12.997Z,4.26
2018-03-30T05:48:38.489Z,4.28
2018-03-30T05:49:03.906Z,4.2
2018-03-30T05:49:29.387Z,4.23
2018-03-30T05:49:54.877Z,4.23
2018-03-30T05:50:20.351Z,4.26
2018-03-30T05:50:45.795Z,4.19
2018-03-30T05:51:11.299Z,4.34
2018-03-30T05:51:36.781Z,4.22
2018-03-30T05:52:02.266Z,4.35
2018-03-30T05:52:27.746Z,4.34
2018-03-30T05:52:53.213Z,4.3
2018-03-30T05:53:18.676Z,4.26
2018-03-30T05:53:44.158Z,4.28
2018-03-30T05:54:09.650Z,4.34
2018-03-30T05:54:35.094Z,4.38
2018-03-30T05:55:00.560Z,4.35
2018-03-30T05:55:26.025Z,4.3
2018-03-30T05:55:51.486Z,4.28
2018-03-30T05:56:16.944Z,4.44
2018-03-30T05:56:42.424Z,4.41
2018-03-30T05:57:07.833Z,4.37
2018-03-30T05:57:33.298Z,4.42
2018-03-30T05:57:58.742Z,4.32
2018-03-30T05:58:24.202Z,4.44
2018-03-30T05:58:49.663Z,4.42
2018-03-30T05:59:15.120Z,4.31
2018-03-30T05:59:40.585Z,4.4
2018-03-30T06:00:06.007Z,4.34
2018-03-30T06:00:31.476Z,4.4
2018-03-30T06:00:56.923Z,4.42
2018-03-30T06:01:22.388Z,4.4
2018-03-30T06:01:47.891Z,4.32
2018-03-30T06:02:13.334Z,4.4
2018-03-30T06:02:38.799Z,4.35
2018-03-30T06:03:04.305Z,4.41
2018-03-30T06:03:29.769Z,4.41
2018-03-30T06:03:55.240Z,4.42
2018-03-30T06:04:20.732Z,4.4
2018-03-30T06:04:46.225Z,4.49
2018-03-30T06:05:11.682Z,4.48
2018-03-30T06:05:37.110Z,4.4
2018-03-30T06:06:02.612Z,4.49
2018-03-30T06:06:28.054Z,4.45
2018-03-30T06:06:53.513Z,4.41
2018-03-30T06:07:19.004Z,4.45
2018-03-30T06:07:44.466Z,4.49
2018-03-30T06:08:09.953Z,4.45
2018-03-30T06:08:35.458Z,4.44
2018-03-30T06:09:00.929Z,4.45
2018-03-30T06:09:26.362Z,4.45
2018-03-30T06:09:51.854Z,4.49
2018-03-30T06:10:17.336Z,4.49
2018-03-30T06:10:42.809Z,4.55
2018-03-30T06:11:08.308Z,4.44
2018-03-30T06:11:33.780Z,4.44
2018-03-30T06:11:59.233Z,4.48
2018-03-30T06:12:24.718Z,4.45
2018-03-30T06:12:50.207Z,4.49
2018-03-30T06:13:15.664Z,4.45
2018-03-30T06:13:41.122Z,4.52
2018-03-30T06:14:06.626Z,4.49
2018-03-30T06:14:32.110Z,4.45
2018-03-30T06:14:57.576Z,4.45
2018-03-30T06:15:45.906Z,4.49
2018-03-30T06:16:11.387Z,4.52
2018-03-30T06:16:36.850Z,4.55
2018-03-30T06:17:02.339Z,4.58
2018-03-30T06:17:27.809Z,4.48
2018-03-30T06:17:53.244Z,4.52
2018-03-30T06:18:18.801Z,4.48
2018-03-30T06:18:44.203Z,4.49
2018-03-30T06:19:09.673Z,4.5
2018-03-30T06:19:35.166Z,4.5
2018-03-30T06:20:00.637Z,4.5
2018-03-30T06:20:26.107Z,4.48
2018-03-30T06:20:51.609Z,4.42
2018-03-30T06:21:17.080Z,4.5
2018-03-30T06:21:42.493Z,4.48
2018-03-30T06:22:07.990Z,4.48
2018-03-30T06:22:33.393Z,4.5
2018-03-30T06:22:58.861Z,4.48
2018-03-30T06:23:24.306Z,4.5
2018-03-30T06:23:49.777Z,4.56
2018-03-30T06:24:15.289Z,4.48
2018-03-30T06:24:40.773Z,4.44
2018-03-30T06:25:06.271Z,4.49
2018-03-30T06:25:31.739Z,4.5
2018-03-30T06:25:57.241Z,4.49
2018-03-30T06:26:22.673Z,4.45
2018-03-30T06:26:48.217Z,4.56
2018-03-30T06:27:13.634Z,4.49
2018-03-30T06:27:39.131Z,4.55
2018-03-30T06:28:04.608Z,4.55
2018-03-30T06:28:30.045Z,4.52
2018-03-30T06:28:55.546Z,4.59
2018-03-30T06:29:20.980Z,4.59
2018-03-30T06:29:46.450Z,4.62
2018-03-30T06:30:11.936Z,4.68
2018-03-30T06:30:37.459Z,4.62
2018-03-30T06:31:46.149Z,4.6
2018-03-30T06:32:11.636Z,4.66
2018-03-30T06:32:37.084Z,4.68
2018-03-30T06:33:02.537Z,4.71
2018-03-30T06:33:28.008Z,4.75
2018-03-30T06:33:53.500Z,4.67
2018-03-30T06:34:18.943Z,4.74
2018-03-30T06:34:44.578Z,4.71
2018-03-30T06:35:10.017Z,4.84
2018-03-30T06:35:35.475Z,4.73
2018-03-30T06:36:00.963Z,4.86
2018-03-30T06:36:26.483Z,4.78
2018-03-30T06:36:51.986Z,4.78
2018-03-30T06:37:17.431Z,4.78
2018-03-30T06:37:42.925Z,4.82
2018-03-30T06:38:08.404Z,4.86
2018-03-30T06:38:33.898Z,4.86
2018-03-30T06:38:59.421Z,4.7
2018-03-30T06:39:24.904Z,4.7
2018-03-30T06:39:50.402Z,4.8
2018-03-30T06:40:15.883Z,4.92
2018-03-30T06:40:41.383Z,4.96
2018-03-30T06:41:06.821Z,4.68
2018-03-30T06:41:32.354Z,4.89
2018-03-30T06:41:57.823Z,4.73
2018-03-30T06:42:23.317Z,4.87
2018-03-30T06:42:48.830Z,4.78
2018-03-30T06:43:14.366Z,4.89
2018-03-30T06:43:39.864Z,4.92
2018-03-30T06:44:38.412Z,4.84
2018-03-30T06:45:03.900Z,4.9
2018-03-30T06:45:29.397Z,4.87
2018-03-30T06:45:54.908Z,4.89
2018-03-30T06:46:20.378Z,4.89
2018-03-30T06:46:45.825Z,4.82
2018-03-30T06:47:11.317Z,4.86
2018-03-30T06:48:04.749Z,4.9
2018-03-30T06:48:30.220Z,4.89
2018-03-30T06:48:55.712Z,4.84
2018-03-30T06:49:21.184Z,4.82
2018-03-30T06:49:46.671Z,4.84
2018-03-30T06:50:12.169Z,4.84
2018-03-30T06:50:37.637Z,4.92
2018-03-30T06:51:03.114Z,4.86
2018-03-30T06:51:28.598Z,4.78
2018-03-30T06:51:54.069Z,4.87
2018-03-30T06:52:19.575Z,4.86
2018-03-30T06:52:45.056Z,4.93
2018-03-30T06:53:10.540Z,4.75
2018-03-30T06:53:36.040Z,4.89
2018-03-30T06:54:01.497Z,4.96
2018-03-30T06:54:26.977Z,4.84
2018-03-30T06:54:52.470Z,4.87
2018-03-30T06:55:17.950Z,4.92
2018-03-30T06:55:43.420Z,4.92
2018-03-30T06:56:08.878Z,4.92
2018-03-30T06:56:34.346Z,4.89
2018-03-30T06:56:59.847Z,4.93
2018-03-30T06:57:25.356Z,4.92
2018-03-30T06:57:50.861Z,4.94
2018-03-30T06:58:16.315Z,4.9
2018-03-30T06:58:41.817Z,4.93
2018-03-30T06:59:07.319Z,4.96
2018-03-30T06:59:32.788Z,4.92
2018-03-30T06:59:58.279Z,4.94
2018-03-30T07:00:23.804Z,4.9
2018-03-30T07:00:49.258Z,4.9
2018-03-30T07:01:14.714Z,4.9
2018-03-30T07:01:40.241Z,4.89
2018-03-30T07:02:05.702Z,4.9
2018-03-30T07:02:31.201Z,4.86
2018-03-30T07:02:56.660Z,4.84
2018-03-30T07:03:22.155Z,4.92
2018-03-30T07:03:47.655Z,4.8
2018-03-30T07:04:13.150Z,4.87
2018-03-30T07:04:38.625Z,4.87
2018-03-30T07:05:04.125Z,4.89
2018-03-30T07:05:29.632Z,4.92
2018-03-30T07:05:55.108Z,4.84
2018-03-30T07:06:20.613Z,4.89
2018-03-30T07:06:46.105Z,4.78
2018-03-30T07:07:11.597Z,4.87
2018-03-30T07:07:37.096Z,4.8
2018-03-30T07:08:02.561Z,4.89
2018-03-30T07:08:28.018Z,4.87
2018-03-30T07:08:53.487Z,4.92
2018-03-30T07:09:18.986Z,4.9
2018-03-30T07:09:44.464Z,4.92
2018-03-30T07:10:09.934Z,4.86
2018-03-30T07:10:35.415Z,4.93
2018-03-30T07:11:00.882Z,4.92
2018-03-30T07:11:26.372Z,4.97
2018-03-30T07:11:51.885Z,4.93
2018-03-30T07:12:17.368Z,4.92
2018-03-30T07:12:42.836Z,4.86
2018-03-30T07:13:08.289Z,4.87
2018-03-30T07:13:33.742Z,4.9
2018-03-30T07:13:59.279Z,4.92
2018-03-30T07:14:24.836Z,4.84
2018-03-30T07:14:50.284Z,4.94
2018-03-30T07:15:15.729Z,4.9
2018-03-30T07:15:41.193Z,4.87
2018-03-30T07:16:06.727Z,4.9
2018-03-30T07:16:32.112Z,4.89
2018-03-30T07:16:57.626Z,5.02
2018-03-30T07:17:23.134Z,4.94
2018-03-30T07:17:48.634Z,5.05
2018-03-30T07:18:14.087Z,4.97
2018-03-30T07:18:39.603Z,5.04
2018-03-30T07:19:05.060Z,5
2018-03-30T07:19:30.567Z,5.05
2018-03-30T07:19:56.027Z,5.17
2018-03-30T07:20:21.512Z,5.15
2018-03-30T07:20:47.005Z,5.14
2018-03-30T07:21:12.473Z,5.15
2018-03-30T07:21:37.986Z,5.18
2018-03-30T07:22:03.440Z,5.21
2018-03-30T07:22:29.133Z,5.17
2018-03-30T07:22:54.789Z,5.25
2018-03-30T07:23:20.089Z,5.28
2018-03-30T07:23:45.571Z,5.25
2018-03-30T07:24:11.097Z,5.26
2018-03-30T07:24:36.552Z,5.23
2018-03-30T07:25:02.055Z,5.3
2018-03-30T07:25:27.572Z,5.25
2018-03-30T07:25:53.552Z,5.32
2018-03-30T07:26:19.179Z,5.33
2018-03-30T07:26:44.832Z,5.29
2018-03-30T07:27:10.050Z,5.3
2018-03-30T07:27:35.525Z,5.36
2018-03-30T07:28:01.034Z,5.33
2018-03-30T07:28:26.505Z,5.41
2018-03-30T07:28:51.982Z,5.41
2018-03-30T07:29:17.458Z,5.36
2018-03-30T07:29:42.931Z,5.39
2018-03-30T07:30:32.082Z,5.38
2018-03-30T07:30:57.575Z,5.35
2018-03-30T07:31:23.077Z,5.36
2018-03-30T07:31:48.554Z,5.38
2018-03-30T07:32:14.100Z,5.39
2018-03-30T07:32:39.560Z,5.33
2018-03-30T07:33:05.209Z,5.35
2018-03-30T07:33:30.813Z,5.39
2018-03-30T07:33:56.356Z,5.43
2018-03-30T07:34:21.926Z,5.5
2018-03-30T07:34:47.477Z,5.5
2018-03-30T07:35:12.930Z,5.47
2018-03-30T07:35:38.412Z,5.47
2018-03-30T07:36:03.875Z,5.5
2018-03-30T07:36:29.423Z,5.48
2018-03-30T07:36:55.009Z,5.47
2018-03-30T07:37:20.582Z,5.56
2018-03-30T07:37:46.035Z,5.57
2018-03-30T07:38:11.615Z,5.62
2018-03-30T07:38:37.193Z,5.56
2018-03-30T07:39:02.638Z,5.68
2018-03-30T07:39:28.251Z,5.65
2018-03-30T07:39:53.741Z,5.71
2018-03-30T07:40:19.158Z,5.76
2018-03-30T07:40:44.718Z,5.83
2018-03-30T07:41:10.188Z,5.83
2018-03-30T07:41:35.633Z,5.9
2018-03-30T07:42:01.140Z,5.98
2018-03-30T07:42:26.648Z,6.05
2018-03-30T07:42:52.134Z,6.01
2018-03-30T07:43:17.680Z,6.08
2018-03-30T07:43:43.189Z,6.07
2018-03-30T07:44:08.652Z,6.11
2018-03-30T07:44:34.127Z,6.2
2018-03-30T07:44:59.572Z,6.24
2018-03-30T07:45:25.108Z,6.17
2018-03-30T07:45:50.702Z,6.26
2018-03-30T07:46:16.056Z,6.26
2018-03-30T07:46:41.595Z,6.36
2018-03-30T07:47:07.005Z,6.38
2018-03-30T07:47:32.533Z,6.51
2018-03-30T07:47:57.993Z,6.56
2018-03-30T07:48:23.495Z,6.48
2018-03-30T07:48:48.996Z,6.64
2018-03-30T07:49:14.505Z,6.63
2018-03-30T07:49:39.970Z,6.6
2018-03-30T07:50:05.498Z,6.78
2018-03-30T07:50:30.980Z,6.77
2018-03-30T07:50:56.397Z,6.82
2018-03-30T07:51:21.824Z,6.79
2018-03-30T07:51:47.290Z,6.81
2018-03-30T07:52:12.809Z,6.93
2018-03-30T07:52:38.314Z,6.82
2018-03-30T07:53:03.817Z,6.84
2018-03-30T07:53:29.324Z,6.79
2018-03-30T07:53:54.884Z,6.81
2018-03-30T07:54:20.332Z,6.82
2018-03-30T07:54:45.875Z,6.88
2018-03-30T07:55:11.476Z,6.87
2018-03-30T07:55:36.978Z,6.92
2018-03-30T07:56:02.444Z,6.88
2018-03-30T07:56:27.918Z,6.99
2018-03-30T07:56:53.456Z,6.96
2018-03-30T07:57:18.932Z,6.99
2018-03-30T07:57:44.363Z,7.05
2018-03-30T07:58:09.857Z,7.07
2018-03-30T07:58:35.308Z,7.13
2018-03-30T07:59:00.804Z,7.15
2018-03-30T07:59:26.453Z,7.14
2018-03-30T07:59:51.933Z,7.17
2018-03-30T08:00:17.423Z,7.24
2018-03-30T08:00:42.876Z,7.07
2018-03-30T08:01:08.408Z,7.14
2018-03-30T08:01:34.020Z,7.11
2018-03-30T08:01:59.525Z,7.14
2018-03-30T08:02:25.009Z,7.2
2018-03-30T08:02:50.526Z,7.29
2018-03-30T08:03:15.996Z,7.31
2018-03-30T08:03:41.461Z,7.31
2018-03-30T08:04:06.978Z,7.32
2018-03-30T08:04:32.671Z,7.36
2018-03-30T08:04:58.168Z,7.38
2018-03-30T08:05:23.698Z,7.4
2018-03-30T08:05:49.188Z,7.39
2018-03-30T08:06:14.652Z,7.39
2018-03-30T08:06:40.228Z,7.4
2018-03-30T08:07:05.699Z,7.36
2018-03-30T08:07:31.175Z,7.39
2018-03-30T08:07:56.709Z,7.36
2018-03-30T08:08:22.137Z,7.36
2018-03-30T08:08:47.665Z,7.51
2018-03-30T08:09:13.153Z,7.38
2018-03-30T08:09:38.638Z,7.51
2018-03-30T08:10:04.103Z,7.51
2018-03-30T08:10:29.565Z,7.42
2018-03-30T08:10:55.169Z,7.53
2018-03-30T08:11:20.563Z,7.6
2018-03-30T08:11:46.054Z,7.58
2018-03-30T08:12:11.583Z,7.6
2018-03-30T08:12:37.036Z,7.67
2018-03-30T08:13:02.524Z,7.73
2018-03-30T08:13:28.141Z,7.73
2018-03-30T08:13:53.683Z,7.76
2018-03-30T08:14:19.160Z,7.75
2018-03-30T08:14:44.650Z,7.75
2018-03-30T08:15:10.101Z,7.76
2018-03-30T08:15:35.667Z,7.72
2018-03-30T08:16:01.364Z,7.72
2018-03-30T08:16:26.814Z,7.76
2018-03-30T08:16:52.306Z,7.72
2018-03-30T08:17:17.789Z,7.73
2018-03-30T08:17:43.249Z,7.75
2018-03-30T08:18:08.743Z,7.69
2018-03-30T08:18:34.213Z,7.72
2018-03-30T08:18:59.692Z,7.75
2018-03-30T08:19:25.227Z,7.73
2018-03-30T08:19:50.659Z,7.69
2018-03-30T08:20:16.122Z,7.75
2018-03-30T08:20:41.890Z,7.77
2018-03-30T08:21:07.344Z,7.76
2018-03-30T08:21:32.759Z,7.79
2018-03-30T08:21:58.669Z,7.75
2018-03-30T08:22:24.051Z,7.73
2018-03-30T08:22:49.593Z,7.8
2018-03-30T08:23:15.024Z,7.7
2018-03-30T08:23:40.530Z,7.77
2018-03-30T08:24:05.959Z,7.7
2018-03-30T08:24:31.485Z,7.83
2018-03-30T08:24:57.015Z,7.75
2018-03-30T08:25:22.632Z,7.82
2018-03-30T08:25:48.083Z,7.77
2018-03-30T08:26:13.651Z,7.85
2018-03-30T08:26:39.134Z,7.85
2018-03-30T08:27:04.528Z,7.82
2018-03-30T08:27:30.058Z,7.76
2018-03-30T08:27:55.543Z,7.79
2018-03-30T08:28:21.097Z,7.83
2018-03-30T08:28:46.559Z,7.8
2018-03-30T08:29:12.276Z,7.8
2018-03-30T08:29:37.647Z,7.76
2018-03-30T08:30:03.198Z,7.76
2018-03-30T08:30:28.628Z,7.8
2018-03-30T08:30:54.252Z,7.77
2018-03-30T08:31:20.115Z,7.72
2018-03-30T08:31:45.518Z,7.77
2018-03-30T08:32:11.125Z,7.77
2018-03-30T08:32:36.792Z,7.67
2018-03-30T08:33:02.262Z,7.85
2018-03-30T08:33:27.907Z,7.63
2018-03-30T08:33:53.416Z,7.79
2018-03-30T08:34:18.938Z,7.77
2018-03-30T08:34:44.432Z,7.76
2018-03-30T08:35:10.214Z,7.79
2018-03-30T08:35:35.723Z,7.83
2018-03-30T08:36:01.378Z,7.76
2018-03-30T08:36:26.916Z,7.75
2018-03-30T08:36:52.996Z,7.8
2018-03-30T08:37:17.908Z,7.73
2018-03-30T08:37:43.404Z,7.79
2018-03-30T08:38:08.871Z,7.85
2018-03-30T08:38:34.362Z,7.8
2018-03-30T08:38:59.808Z,7.8
2018-03-30T08:39:25.346Z,7.91
2018-03-30T08:39:50.873Z,7.9
2018-03-30T08:40:16.381Z,7.94
2018-03-30T08:40:41.928Z,7.97
2018-03-30T08:41:07.357Z,7.94
2018-03-30T08:41:32.850Z,7.95
2018-03-30T08:41:58.376Z,8
2018-03-30T08:42:23.956Z,7.94
2018-03-30T08:42:49.374Z,7.98
2018-03-30T08:43:14.882Z,7.95
2018-03-30T08:43:40.361Z,7.94
2018-03-30T08:44:05.803Z,8
2018-03-30T08:44:31.303Z,7.97
2018-03-30T08:44:56.787Z,7.93
2018-03-30T08:45:22.274Z,8.06
2018-03-30T08:45:47.748Z,7.98
2018-03-30T08:46:13.262Z,8.1
2018-03-30T08:46:38.727Z,8.06
2018-03-30T08:47:04.292Z,8.05
2018-03-30T08:47:29.846Z,8.1
2018-03-30T08:47:55.315Z,7.98
2018-03-30T08:48:20.904Z,7.98
2018-03-30T08:48:46.442Z,8.09
2018-03-30T08:49:12.167Z,7.94
2018-03-30T08:49:37.493Z,8.1
2018-03-30T08:50:02.988Z,8
2018-03-30T08:50:28.477Z,7.97
2018-03-30T08:50:53.980Z,8
2018-03-30T08:51:19.515Z,7.98
2018-03-30T08:51:45.029Z,8.09
2018-03-30T08:52:10.464Z,8.08
2018-03-30T08:52:35.963Z,8.08
2018-03-30T08:53:01.439Z,8.06
2018-03-30T08:53:26.953Z,8.09
2018-03-30T08:53:52.467Z,8.1
2018-03-30T08:54:17.930Z,8.15
2018-03-30T08:54:43.450Z,8.15
2018-03-30T08:55:08.953Z,8.19
2018-03-30T08:55:34.447Z,8.23
2018-03-30T08:55:59.934Z,8.16
2018-03-30T08:56:25.454Z,8.18
2018-03-30T08:56:50.973Z,8.27
2018-03-30T08:57:16.542Z,8.27
2018-03-30T08:57:42.046Z,8.26
2018-03-30T08:58:07.514Z,8.3
2018-03-30T08:58:33.019Z,8.31
2018-03-30T08:58:58.514Z,8.34
2018-03-30T08:59:24.031Z,8.37
2018-03-30T08:59:49.521Z,8.33
2018-03-30T09:00:15.031Z,8.36
2018-03-30T09:00:40.525Z,8.31
2018-03-30T09:01:06.028Z,8.33
2018-03-30T09:01:31.487Z,8.33
2018-03-30T09:01:56.954Z,8.33
2018-03-30T09:02:45.272Z,8.38
2018-03-30T09:03:10.771Z,8.31
2018-03-30T09:03:36.288Z,8.48
2018-03-30T09:04:01.769Z,8.48
2018-03-30T09:04:27.235Z,8.44
2018-03-30T09:04:52.704Z,8.52
2018-03-30T09:05:18.224Z,8.49
2018-03-30T09:05:43.711Z,8.52
2018-03-30T09:06:09.280Z,8.56
2018-03-30T09:06:34.725Z,8.53
2018-03-30T09:07:00.178Z,8.6
2018-03-30T09:07:25.671Z,8.66
2018-03-30T09:07:51.230Z,8.64
2018-03-30T09:08:16.684Z,8.61
2018-03-30T09:08:42.185Z,8.61
2018-03-30T09:09:07.674Z,8.7
2018-03-30T09:09:33.133Z,8.66
2018-03-30T09:09:58.635Z,8.71
2018-03-30T09:10:24.129Z,8.69
2018-03-30T09:10:49.623Z,8.73
2018-03-30T09:11:15.090Z,8.74
2018-03-30T09:11:40.571Z,8.7
2018-03-30T09:12:06.045Z,8.7
2018-03-30T09:12:31.559Z,8.7
2018-03-30T09:12:57.039Z,8.71
2018-03-30T09:13:22.501Z,8.76
2018-03-30T09:13:48.052Z,8.76
2018-03-30T09:14:13.487Z,8.7
2018-03-30T09:15:12.018Z,8.7
2018-03-30T09:15:37.512Z,8.67
2018-03-30T09:16:03.008Z,8.73
2018-03-30T09:16:28.506Z,8.67
2018-03-30T09:16:54.002Z,8.69
2018-03-30T09:17:19.456Z,8.74
2018-03-30T09:17:44.965Z,8.73
2018-03-30T09:18:10.456Z,8.7
2018-03-30T09:18:35.928Z,8.73
2018-03-30T09:19:01.417Z,8.7
2018-03-30T09:19:26.920Z,8.73
2018-03-30T09:19:52.487Z,8.76
2018-03-30T09:20:17.980Z,8.76
2018-03-30T09:21:26.692Z,8.78
2018-03-30T09:21:52.181Z,8.69
2018-03-30T09:22:17.647Z,8.84
2018-03-30T09:22:43.140Z,8.88
2018-03-30T09:23:08.728Z,8.82
2018-03-30T09:23:34.174Z,8.91
2018-03-30T09:23:59.691Z,8.91
2018-03-30T09:24:25.167Z,8.95
2018-03-30T09:24:50.643Z,8.88
2018-03-30T09:25:16.154Z,9
2018-03-30T09:25:41.624Z,9.08
2018-03-30T09:26:07.109Z,9.1
2018-03-30T09:26:32.614Z,9.19
2018-03-30T09:26:58.154Z,9.19
2018-03-30T09:27:23.646Z,9.32
2018-03-30T09:27:49.140Z,9.4
2018-03-30T09:28:14.598Z,9.43
2018-03-30T09:28:40.072Z,9.41
2018-03-30T09:29:05.537Z,9.43
2018-03-30T09:29:31.019Z,9.54
2018-03-30T09:29:56.514Z,9.58
2018-03-30T09:30:22.019Z,9.68
2018-03-30T09:30:47.477Z,9.69
2018-03-30T09:31:12.949Z,9.8
2018-03-30T09:31:38.447Z,9.82
2018-03-30T09:32:03.935Z,9.91
2018-03-30T09:32:29.473Z,9.99
2018-03-30T09:32:54.943Z,10.1
2018-03-30T09:33:20.555Z,10.04
2018-03-30T09:33:46.087Z,10.13
2018-03-30T09:34:11.584Z,10.19
2018-03-30T09:34:37.057Z,10.25
2018-03-30T09:35:02.540Z,10.26
2018-03-30T09:35:28.023Z,10.34
2018-03-30T09:35:53.521Z,10.22
2018-03-30T09:36:19.038Z,10.28
2018-03-30T09:36:44.531Z,10.23
2018-03-30T09:37:10.060Z,10.3
2018-03-30T09:37:35.548Z,10.28
2018-03-30T09:38:01.023Z,10.33
2018-03-30T09:38:26.508Z,10.3
2018-03-30T09:38:52.079Z,10.26
2018-03-30T09:39:17.499Z,10.26
2018-03-30T09:39:42.969Z,10.22
2018-03-30T09:40:08.474Z,10.15
2018-03-30T09:40:33.927Z,10.22
2018-03-30T09:40:59.407Z,10.23
2018-03-30T09:41:24.951Z,10.22
2018-03-30T09:41:50.424Z,10.2
2018-03-30T09:42:15.952Z,10.17
2018-03-30T09:42:41.469Z,10.23
2018-03-30T09:43:06.922Z,10.13
2018-03-30T09:43:32.403Z,10.09
2018-03-30T09:43:57.914Z,10.13
2018-03-30T09:44:23.381Z,10.05
2018-03-30T09:45:17.825Z,10.07
2018-03-30T09:45:43.319Z,10.05
2018-03-30T09:46:08.813Z,10.1
2018-03-30T09:46:34.311Z,10.13
2018-03-30T09:46:59.772Z,10.1